Time;durP1;ratioP1;P1;durP2;ratioP2;P2;SDS_P1;SDS_P2;PMS_P1;PMS_P2;Temp;Humidity;BMP_temperature;BMP_pressure;BME280_temperature;BME280_humidity;BME280_pressure;Samples;Min_cycle;Max_cycle;Signal;HPM_P1;HPM_P2
2021/01/17 00:01:17;;;;;;;26.25;3.42;;;5.00;99.90;;;;;;4929020;29;20466;-94
2021/01/17 00:03:44;;;;;;;22.13;3.92;;;5.00;99.90;;;;;;4922947;29;20055;-94
2021/01/17 00:06:30;;;;;;;17.95;3.78;;;5.00;99.90;;;;;;4913575;29;20024;-93
2021/01/17 00:08:56;;;;;;;17.17;4.88;;;5.00;99.90;;;;;;4919806;29;20095;-92
2021/01/17 00:11:22;;;;;;;25.50;3.92;;;5.00;99.90;;;;;;4922846;29;20024;-94
2021/01/17 00:13:48;;;;;;;28.48;3.75;;;5.00;99.90;;;;;;4902481;29;20383;-93
2021/01/17 00:16:14;;;;;;;19.33;4.05;;;5.00;99.90;;;;;;4903034;29;20051;-92
2021/01/17 00:18:40;;;;;;;18.88;3.30;;;5.00;99.90;;;;;;4903657;29;20025;-92
2021/01/17 00:21:05;;;;;;;12.30;4.68;;;5.00;99.90;;;;;;4915068;29;20036;-92
2021/01/17 00:23:31;;;;;;;29.23;4.63;;;5.00;99.90;;;;;;4911331;29;20027;-96
2021/01/17 00:25:57;;;;;;;20.42;4.10;;;5.00;99.90;;;;;;4927506;29;20028;-92
2021/01/17 00:28:22;;;;;;;35.35;5.10;;;5.00;99.90;;;;;;4912545;29;20032;-95
2021/01/17 00:30:48;;;;;;;21.90;5.70;;;5.00;99.90;;;;;;4912846;29;20024;-93
2021/01/17 00:33:32;;;;;;;30.90;6.63;;;5.10;99.90;;;;;;4926894;29;20042;-94
2021/01/17 00:36:00;;;;;;;22.58;3.50;;;5.00;99.90;;;;;;4906280;29;20040;-94
2021/01/17 00:38:30;;;;;;;23.90;3.65;;;5.00;99.90;;;;;;4921135;29;20031;-93
2021/01/17 00:40:59;;;;;;;29.38;3.40;;;5.00;99.90;;;;;;4920018;29;20028;-94
2021/01/17 00:43:40;;;;;;;18.58;3.38;;;5.00;99.90;;;;;;4919832;29;20126;-94
2021/01/17 00:46:09;;;;;;;22.30;3.30;;;5.00;99.90;;;;;;4919771;29;20493;-95
2021/01/17 00:48:39;;;;;;;20.27;3.53;;;5.00;99.90;;;;;;4919471;29;20123;-94
2021/01/17 00:57:44;;;;;;;24.50;3.53;;;5.00;99.90;;;;;;5027973;23;20075;-94
2021/01/17 01:00:13;;;;;;;23.67;3.47;;;5.00;99.90;;;;;;4922442;29;20039;-96
2021/01/17 01:02:42;;;;;;;26.15;5.10;;;5.00;99.90;;;;;;4938219;29;20023;-95
2021/01/17 01:05:09;;;;;;;18.02;3.70;;;5.00;99.90;;;;;;4938058;29;20019;-95
2021/01/17 01:07:36;;;;;;;25.88;3.30;;;5.00;99.90;;;;;;4937730;29;20488;-94
2021/01/17 01:10:09;;;;;;;25.10;3.90;;;5.00;99.90;;;;;;4937852;29;20367;-94
2021/01/17 01:12:35;;;;;;;12.75;2.88;;;4.90;99.90;;;;;;4937861;29;20024;-94
2021/01/17 01:15:02;;;;;;;17.70;2.55;;;5.00;99.90;;;;;;4934615;29;20182;-95
2021/01/17 01:17:28;;;;;;;15.38;3.35;;;4.90;99.90;;;;;;4922015;29;20568;-94
2021/01/17 01:19:57;;;;;;;18.27;3.15;;;5.00;99.90;;;;;;4922454;29;20599;-95
2021/01/17 01:22:23;;;;;;;13.43;2.80;;;5.00;99.90;;;;;;4923187;29;20032;-95
2021/01/17 01:25:06;;;;;;;;;;;;;;;;;;;;;
2021/01/17 01:27:37;;;;;;;16.30;3.47;;;5.00;99.90;;;;;;4926587;29;20124;-93
2021/01/17 01:30:09;;;;;;;19.38;2.47;;;5.00;99.90;;;;;;4922722;29;20035;-94
2021/01/17 01:32:43;;;;;;;14.27;2.47;;;5.00;99.90;;;;;;4921616;29;20051;-94
2021/01/17 01:35:27;;;;;;;19.58;2.35;;;4.90;99.90;;;;;;4921532;29;20024;-94
2021/01/17 01:37:55;;;;;;;6.22;1.63;;;5.00;99.90;;;;;;4921332;29;20111;-94
2021/01/17 01:40:21;;;;;;;13.43;2.97;;;4.90;99.90;;;;;;4921492;29;20023;-94
2021/01/17 01:43:01;;;;;;;16.98;2.38;;;4.90;99.90;;;;;;4921604;29;20078;-93
2021/01/17 01:45:26;;;;;;;14.32;2.85;;;4.90;99.90;;;;;;4921384;29;20059;-93
2021/01/17 01:47:52;;;;;;;15.38;2.13;;;5.00;99.90;;;;;;4921293;29;20035;-93
2021/01/17 01:50:19;;;;;;;12.77;2.33;;;5.00;99.90;;;;;;4921316;29;20027;-92
2021/01/17 01:52:54;;;;;;;13.70;1.90;;;5.00;99.90;;;;;;4921068;29;20036;-95
2021/01/17 01:55:20;;;;;;;14.88;2.00;;;5.00;99.90;;;;;;4920955;29;20032;-94
2021/01/17 01:57:46;;;;;;;13.00;2.83;;;5.00;99.90;;;;;;4920723;29;20052;-94
2021/01/17 02:00:12;;;;;;;16.45;1.88;;;4.90;99.90;;;;;;4920403;29;20118;-94
2021/01/17 02:02:45;;;;;;;22.17;2.20;;;4.90;99.90;;;;;;4920342;29;20038;-95
2021/01/17 02:05:15;;;;;;;18.25;2.38;;;4.90;99.90;;;;;;4919594;29;20036;-95
2021/01/17 02:08:14;;;;;;;20.20;3.10;;;4.90;99.90;;;;;;4920521;29;20024;-95
2021/01/17 02:10:46;;;;;;;11.43;1.77;;;4.90;99.90;;;;;;4920510;29;20059;-94
2021/01/17 02:13:31;;;;;;;19.65;3.10;;;4.90;99.90;;;;;;4920095;29;20023;-94
2021/01/17 02:15:58;;;;;;;18.40;2.92;;;4.90;99.90;;;;;;4920381;29;20086;-94
2021/01/17 02:18:27;;;;;;;29.45;3.20;;;4.90;99.90;;;;;;4920752;29;20065;-94
2021/01/17 02:20:59;;;;;;;11.65;2.08;;;4.90;99.90;;;;;;4920485;29;20067;-93
2021/01/17 02:23:30;;;;;;;12.18;2.15;;;4.90;99.90;;;;;;4920479;29;20027;-94
2021/01/17 02:25:56;;;;;;;11.40;2.20;;;4.90;99.90;;;;;;4920771;29;20115;-95
2021/01/17 02:28:38;;;;;;;8.95;1.67;;;4.90;99.90;;;;;;4920637;29;20138;-95
2021/01/17 02:31:04;;;;;;;15.63;2.63;;;4.90;99.90;;;;;;4920451;29;20067;-95
2021/01/17 02:33:59;;;;;;;11.70;2.08;;;4.90;99.90;;;;;;4920694;29;20024;-95
2021/01/17 02:36:34;;;;;;;15.95;3.38;;;4.90;99.90;;;;;;4919705;29;20130;-94
2021/01/17 02:39:15;;;;;;;20.70;2.90;;;4.90;99.90;;;;;;4920585;29;20036;-94
2021/01/17 02:42:03;;;;;;;8.48;2.05;;;4.80;99.90;;;;;;4920214;29;20374;-94
2021/01/17 02:44:37;;;;;;;12.07;2.10;;;4.90;99.90;;;;;;4920549;29;20046;-94
2021/01/17 02:47:03;;;;;;;11.20;2.58;;;4.80;99.90;;;;;;4920869;29;20031;-93
2021/01/17 02:49:31;;;;;;;7.75;1.80;;;4.80;99.90;;;;;;4926558;29;20038;-94
2021/01/17 02:52:20;;;;;;;11.50;2.42;;;4.80;99.90;;;;;;4932316;29;20034;-94
2021/01/17 02:54:47;;;;;;;15.95;2.15;;;4.80;99.90;;;;;;4936306;29;20032;-92
2021/01/17 02:57:15;;;;;;;16.73;1.92;;;4.80;99.90;;;;;;4937098;29;20078;-93
2021/01/17 03:00:07;;;;;;;8.05;1.92;;;4.80;99.90;;;;;;4939230;29;20032;-94
2021/01/17 03:02:35;;;;;;;17.02;2.13;;;4.80;99.90;;;;;;4943052;29;20083;-94
2021/01/17 03:05:11;;;;;;;13.10;2.05;;;4.80;99.90;;;;;;4939540;29;20027;-93
2021/01/17 03:07:45;;;;;;;10.55;1.83;;;4.80;99.90;;;;;;4936461;29;20135;-94
2021/01/17 03:10:12;;;;;;;7.97;1.83;;;4.70;99.90;;;;;;4920774;29;20028;-95
2021/01/17 03:12:37;;;;;;;10.88;1.92;;;4.80;99.90;;;;;;4936121;29;20102;-93
2021/01/17 03:15:05;;;;;;;13.00;1.88;;;4.70;99.90;;;;;;4936041;29;20036;-93
2021/01/17 03:17:31;;;;;;;12.95;1.58;;;4.70;99.90;;;;;;4935550;29;20035;-93
2021/01/17 03:19:57;;;;;;;14.25;2.05;;;4.70;99.90;;;;;;4935828;29;20060;-93
2021/01/17 03:22:22;;;;;;;16.88;1.92;;;4.60;99.90;;;;;;4935396;29;20086;-93
2021/01/17 03:24:51;;;;;;;13.45;1.60;;;4.60;99.90;;;;;;4935450;29;20056;-94
2021/01/17 03:27:17;;;;;;;18.60;2.13;;;4.60;99.90;;;;;;4935339;29;20078;-93
2021/01/17 03:29:43;;;;;;;8.88;2.35;;;4.60;99.90;;;;;;4935075;29;20027;-94
2021/01/17 03:32:14;;;;;;;16.33;2.20;;;4.50;99.90;;;;;;4934990;29;20101;-94
2021/01/17 03:34:40;;;;;;;10.30;1.60;;;4.50;99.90;;;;;;4919343;29;20122;-95
2021/01/17 03:37:08;;;;;;;10.45;1.80;;;4.50;99.90;;;;;;4934716;29;20127;-93
2021/01/17 03:39:38;;;;;;;12.75;1.90;;;4.50;99.90;;;;;;4934924;29;20655;-95
2021/01/17 03:42:04;;;;;;;;;;;4.50;99.90;;;;;;4935148;29;20035;-93
2021/01/17 03:44:35;;;;;;;11.68;1.88;;;4.50;99.90;;;;;;4919289;29;20345;-93
2021/01/17 03:47:02;;;;;;;14.15;2.08;;;4.60;99.90;;;;;;4936829;29;20059;-93
2021/01/17 03:49:35;;;;;;;12.20;1.67;;;4.50;99.90;;;;;;4938771;29;20055;-93
2021/01/17 03:52:14;;;;;;;;;;;;;;;;;;;;;
2021/01/17 03:54:51;;;;;;;7.13;1.30;;;4.50;99.90;;;;;;4939521;29;20023;-94
2021/01/17 03:57:17;;;;;;;11.70;1.58;;;4.50;99.90;;;;;;4938040;29;20047;-93
2021/01/17 03:59:43;;;;;;;11.98;1.45;;;4.50;99.90;;;;;;4938682;29;20371;-94
2021/01/17 04:02:09;;;;;;;9.85;1.45;;;4.40;99.90;;;;;;4938834;29;20454;-95
2021/01/17 04:04:34;;;;;;;8.93;1.40;;;4.40;99.90;;;;;;4938911;29;20032;-93
2021/01/17 04:07:00;;;;;;;6.00;1.42;;;4.40;99.90;;;;;;4923108;29;20393;-94
2021/01/17 04:09:26;;;;;;;12.45;1.40;;;4.40;99.90;;;;;;4941053;29;20056;-95
2021/01/17 04:11:52;;;;;;;7.20;1.65;;;4.40;99.90;;;;;;4938940;29;20035;-96
2021/01/17 04:14:17;;;;;;;9.35;1.70;;;4.40;99.90;;;;;;4938703;29;20031;-95
2021/01/17 04:16:53;;;;;;;8.27;1.63;;;4.40;99.90;;;;;;4939320;29;20052;-94
2021/01/17 04:19:19;;;;;;;11.30;1.45;;;4.40;99.90;;;;;;4938331;29;20019;-95
2021/01/17 04:21:45;;;;;;;11.20;2.00;;;4.40;99.90;;;;;;4938635;29;20052;-95
2021/01/17 04:24:32;;;;;;;13.68;1.90;;;4.40;99.90;;;;;;4927798;29;20122;-96
2021/01/17 04:27:17;;;;;;;12.15;1.83;;;4.40;99.90;;;;;;4938426;29;20028;-94
2021/01/17 04:29:42;;;;;;;14.18;2.38;;;4.40;99.90;;;;;;4938662;29;20095;-95
2021/01/17 04:32:11;;;;;;;12.10;1.65;;;4.40;99.90;;;;;;4938593;29;20035;-94
2021/01/17 04:34:37;;;;;;;7.85;1.52;;;4.40;99.90;;;;;;4938141;29;20024;-94
2021/01/17 04:37:03;;;;;;;11.65;2.50;;;4.40;99.90;;;;;;4938444;29;20134;-93
2021/01/17 04:39:28;;;;;;;6.78;1.50;;;4.40;99.90;;;;;;4924140;29;20043;-94
2021/01/17 04:42:07;;;;;;;7.28;1.73;;;4.40;99.90;;;;;;4938497;29;20039;-93
2021/01/17 04:44:34;;;;;;;6.60;1.33;;;4.40;99.90;;;;;;4922314;29;20028;-94
2021/01/17 04:47:05;;;;;;;7.90;1.23;;;4.40;99.90;;;;;;4940226;29;20027;-94
2021/01/17 04:49:52;;;;;;;6.85;1.10;;;4.40;99.90;;;;;;4938622;29;20175;-94
2021/01/17 04:52:27;;;;;;;6.80;1.50;;;4.40;99.90;;;;;;4922765;29;20035;-94
2021/01/17 04:54:53;;;;;;;4.70;1.15;;;4.40;99.90;;;;;;4921986;29;20405;-95
2021/01/17 04:57:43;;;;;;;8.57;1.40;;;4.40;99.90;;;;;;4936844;29;20087;-94
2021/01/17 05:00:24;;;;;;;6.45;1.33;;;4.30;99.90;;;;;;4922142;29;20059;-95
2021/01/17 05:03:13;;;;;;;5.50;1.00;;;4.40;99.90;;;;;;4921705;29;20035;-95
2021/01/17 05:05:46;;;;;;;3.78;1.05;;;4.30;99.90;;;;;;4921567;29;20028;-93
2021/01/17 05:08:27;;;;;;;3.88;1.10;;;4.40;99.90;;;;;;4921138;29;20035;-94
2021/01/17 05:11:31;;;;;;;9.18;1.40;;;4.30;99.90;;;;;;4921732;29;20040;-94
2021/01/17 05:14:38;;;;;;;5.68;1.35;;;4.30;99.90;;;;;;4921542;29;20082;-93
2021/01/17 05:17:04;;;;;;;5.05;1.20;;;4.40;99.90;;;;;;4921312;29;20036;-94
2021/01/17 05:19:35;;;;;;;5.18;1.10;;;4.30;99.90;;;;;;4921112;29;20028;-94
2021/01/17 05:22:02;;;;;;;;;;;4.30;99.90;;;;;;4938076;29;20040;-94
2021/01/17 05:24:31;;;;;;;7.07;1.55;;;4.30;99.90;;;;;;4921280;29;19907;-94
2021/01/17 05:27:03;;;;;;;4.78;1.27;;;4.30;99.90;;;;;;4921317;29;20051;-94
2021/01/17 05:29:30;;;;;;;9.02;2.58;;;4.30;99.90;;;;;;4921212;29;20019;-94
2021/01/17 05:32:01;;;;;;;9.55;1.70;;;4.30;99.90;;;;;;4921240;29;20051;-94
2021/01/17 05:35:12;;;;;;;7.45;1.00;;;4.30;99.90;;;;;;4921264;29;20023;-95
2021/01/17 05:37:57;;;;;;;7.60;1.40;;;4.20;99.90;;;;;;4860981;29;20083;-94
2021/01/17 05:40:23;;;;;;;8.82;2.00;;;4.20;99.90;;;;;;4861205;29;20040;-94
2021/01/17 05:42:51;;;;;;;9.65;1.88;;;4.10;99.90;;;;;;4845661;29;20132;-94
2021/01/17 05:45:26;;;;;;;14.02;2.20;;;4.10;99.90;;;;;;4845956;29;20235;-93
2021/01/17 05:48:09;;;;;;;11.60;2.38;;;4.10;99.90;;;;;;4861061;29;20065;-95
2021/01/17 05:50:37;;;;;;;6.30;1.30;;;4.00;99.90;;;;;;4861345;29;20034;-94
2021/01/17 05:53:04;;;;;;;6.57;1.40;;;4.00;99.90;;;;;;4861354;29;20513;-93
2021/01/17 05:55:35;;;;;;;8.65;1.40;;;4.00;99.90;;;;;;4861020;29;20037;-94
2021/01/17 05:58:23;;;;;;;9.07;1.70;;;4.10;99.90;;;;;;4860803;29;20057;-92
2021/01/17 06:00:52;;;;;;;16.60;1.70;;;4.00;99.90;;;;;;4861661;29;20460;-94
2021/01/17 06:03:38;;;;;;;7.85;1.45;;;4.10;99.90;;;;;;4865758;29;20048;-95
2021/01/17 06:06:07;;;;;;;8.57;1.88;;;4.10;99.90;;;;;;4856894;29;20068;-95
2021/01/17 06:08:34;;;;;;;8.38;1.40;;;4.10;99.90;;;;;;4873442;29;20038;-94
2021/01/17 06:11:13;;;;;;;13.18;1.67;;;4.10;99.90;;;;;;4873119;29;20033;-94
2021/01/17 06:13:40;;;;;;;9.95;1.92;;;4.10;99.90;;;;;;4906036;29;20039;-91
2021/01/17 06:16:35;;;;;;;10.02;1.20;;;4.10;99.90;;;;;;4950172;28;20039;-93
2021/01/17 06:19:09;;;;;;;6.53;1.40;;;4.20;99.90;;;;;;4924143;29;20032;-95
2021/01/17 06:21:48;;;;;;;9.13;1.50;;;4.20;99.90;;;;;;4920425;29;20031;-94
2021/01/17 06:24:35;;;;;;;7.90;1.67;;;4.20;99.90;;;;;;4932160;29;20111;-94
2021/01/17 06:27:12;;;;;;;6.30;1.52;;;4.20;99.90;;;;;;4929304;29;20470;-93
2021/01/17 06:29:48;;;;;;;6.88;1.60;;;4.20;99.90;;;;;;4926632;29;20032;-94
2021/01/17 06:32:25;;;;;;;9.82;1.30;;;4.20;99.90;;;;;;4919356;29;20504;-93
2021/01/17 06:34:56;;;;;;;16.00;1.63;;;4.20;99.90;;;;;;4919692;29;20175;-94
2021/01/17 06:43:54;;;;;;;6.30;1.25;;;4.20;99.90;;;;;;4968181;23;20094;-93
2021/01/17 06:46:19;;;;;;;5.93;1.40;;;4.20;99.90;;;;;;4931030;29;20035;-94
2021/01/17 06:48:54;;;;;;;7.05;1.08;;;4.20;99.90;;;;;;4928194;29;20024;-94
2021/01/17 06:51:20;;;;;;;6.75;1.00;;;4.20;99.90;;;;;;4928079;29;20023;-93
2021/01/17 06:54:07;;;;;;;6.38;1.10;;;4.20;99.90;;;;;;4928062;29;20038;-94
2021/01/17 06:56:35;;;;;;;6.60;1.23;;;4.20;99.90;;;;;;4928112;29;20033;-93
2021/01/17 06:59:02;;;;;;;9.00;1.58;;;4.20;99.90;;;;;;4909207;29;20027;-95
2021/01/17 07:01:40;;;;;;;15.25;1.73;;;4.10;99.90;;;;;;4926427;29;20028;-94
2021/01/17 07:04:12;;;;;;;11.25;1.35;;;4.10;99.90;;;;;;4923937;29;20039;-94
2021/01/17 07:06:55;;;;;;;13.27;2.25;;;4.10;99.90;;;;;;4911491;29;20500;-92
2021/01/17 07:09:49;;;;;;;11.13;2.22;;;4.10;99.90;;;;;;4919716;29;20470;-94
2021/01/17 07:12:36;;;;;;;10.68;2.15;;;4.00;99.90;;;;;;4913288;29;20032;-94
2021/01/17 07:15:08;;;;;;;10.75;1.77;;;4.10;99.90;;;;;;4916849;29;20080;-93
2021/01/17 07:17:39;;;;;;;12.93;1.30;;;4.00;99.90;;;;;;4910643;29;20056;-92
2021/01/17 07:20:06;;;;;;;;;;;4.00;99.90;;;;;;4905873;29;20033;-93
2021/01/17 07:22:32;;;;;;;7.70;2.05;;;4.00;99.90;;;;;;4904744;29;19907;-94
2021/01/17 07:25:00;;;;;;;16.15;3.10;;;4.00;99.90;;;;;;4907361;29;20079;-93
2021/01/17 07:27:54;;;;;;;10.15;1.75;;;4.00;99.90;;;;;;4905856;29;20047;-95
2021/01/17 07:30:31;;;;;;;10.80;1.55;;;4.00;99.90;;;;;;4902068;29;20557;-94
2021/01/17 07:33:15;;;;;;;8.95;1.52;;;4.00;99.90;;;;;;4906952;29;20069;-95
2021/01/17 07:35:47;;;;;;;7.20;1.48;;;4.00;99.90;;;;;;4904682;29;20494;-94
2021/01/17 07:38:26;;;;;;;7.40;1.67;;;4.00;99.90;;;;;;4901502;29;20048;-93
2021/01/17 07:40:53;;;;;;;5.90;1.70;;;4.00;99.90;;;;;;4908405;29;20032;-94
2021/01/17 07:43:24;;;;;;;10.52;1.73;;;4.00;99.90;;;;;;4894478;29;20394;-95
2021/01/17 07:45:50;;;;;;;14.93;2.33;;;4.00;99.90;;;;;;4906542;29;20028;-94
2021/01/17 07:48:17;;;;;;;9.65;1.90;;;4.00;99.90;;;;;;4908600;29;20032;-92
2021/01/17 07:50:46;;;;;;;19.90;3.85;;;4.00;99.90;;;;;;4908588;29;20028;-94
2021/01/17 07:53:32;;;;;;;10.60;3.35;;;4.00;99.90;;;;;;4915480;29;20024;-94
2021/01/17 07:56:06;;;;;;;32.63;8.50;;;4.00;99.90;;;;;;4904651;29;20024;-92
2021/01/17 07:58:33;;;;;;;24.42;7.10;;;4.00;99.90;;;;;;4905970;29;20084;-93
2021/01/17 08:01:00;;;;;;;15.70;4.35;;;3.90;99.90;;;;;;4925718;29;20028;-92
2021/01/17 08:03:26;;;;;;;12.15;3.10;;;3.90;99.90;;;;;;4923870;29;20462;-92
2021/01/17 08:05:56;;;;;;;14.00;3.05;;;3.90;99.90;;;;;;4923697;29;20024;-94
2021/01/17 08:08:34;;;;;;;13.32;3.25;;;3.90;99.90;;;;;;4916511;29;20054;-92
2021/01/17 08:11:01;;;;;;;18.65;3.95;;;4.00;99.90;;;;;;4916042;29;20082;-94
2021/01/17 08:13:38;;;;;;;12.23;2.88;;;4.00;99.90;;;;;;4916184;29;20075;-94
2021/01/17 08:16:11;;;;;;;10.10;2.35;;;4.00;99.90;;;;;;4916221;29;20100;-95
2021/01/17 08:18:40;;;;;;;11.07;3.05;;;4.00;99.90;;;;;;4916034;29;20028;-95
2021/01/17 08:21:21;;;;;;;19.15;2.40;;;4.00;99.90;;;;;;4916154;29;20034;-94
2021/01/17 08:24:21;;;;;;;18.40;3.50;;;4.10;99.90;;;;;;4916465;29;20036;-95
2021/01/17 08:27:00;;;;;;;9.18;2.05;;;4.10;99.90;;;;;;4916817;29;20505;-94
2021/01/17 08:30:07;;;;;;;10.70;2.13;;;4.10;99.90;;;;;;4916702;29;20032;-95
2021/01/17 08:32:36;;;;;;;12.98;2.33;;;4.20;99.90;;;;;;4916736;29;20055;-95
2021/01/17 08:35:20;;;;;;;13.18;1.98;;;4.20;99.90;;;;;;4920000;29;20115;-96
2021/01/17 08:38:06;;;;;;;13.63;1.98;;;4.20;99.90;;;;;;4916237;29;20198;-94
2021/01/17 08:40:35;;;;;;;14.20;1.85;;;4.30;99.90;;;;;;4903264;29;20035;-92
2021/01/17 08:43:04;;;;;;;18.52;2.53;;;4.30;99.90;;;;;;4908941;29;20120;-95
2021/01/17 08:45:34;;;;;;;9.88;2.28;;;4.30;99.90;;;;;;4908942;29;20029;-94
2021/01/17 08:48:18;;;;;;;15.55;1.85;;;4.30;99.90;;;;;;4913521;29;20020;-94
2021/01/17 08:50:45;;;;;;;10.77;2.28;;;4.40;99.90;;;;;;4910330;29;20032;-95
2021/01/17 08:53:26;;;;;;;18.20;2.83;;;4.40;99.90;;;;;;4894182;29;20423;-94
2021/01/17 08:55:59;;;;;;;;;;;4.40;99.90;;;;;;4910620;29;20028;-96
2021/01/17 08:58:28;;;;;;;10.70;1.60;;;4.40;99.90;;;;;;4912463;29;19918;-95
2021/01/17 09:00:55;;;;;;;12.30;2.10;;;4.50;99.90;;;;;;4922424;29;20032;-93
2021/01/17 09:03:31;;;;;;;11.10;2.28;;;4.50;99.90;;;;;;4904803;29;20078;-96
2021/01/17 09:06:02;;;;;;;17.13;1.90;;;4.50;99.90;;;;;;4921378;29;20072;-95
2021/01/17 09:08:29;;;;;;;;;;;4.60;99.90;;;;;;4918697;29;20032;-95
2021/01/17 09:10:56;;;;;;;25.08;2.40;;;4.60;99.90;;;;;;4919229;29;19915;-95
2021/01/17 09:13:30;;;;;;;13.98;1.67;;;4.70;99.90;;;;;;4910930;29;20024;-94
2021/01/17 09:16:02;;;;;;;16.02;1.65;;;4.80;99.90;;;;;;4913174;29;20024;-95
2021/01/17 09:18:30;;;;;;;9.63;1.58;;;4.80;99.90;;;;;;4925923;29;20036;-94
2021/01/17 09:20:57;;;;;;;10.85;1.95;;;4.90;99.90;;;;;;4914444;29;20025;-95
2021/01/17 09:23:24;;;;;;;9.73;1.60;;;4.90;99.90;;;;;;4907474;29;20052;-93
2021/01/17 09:25:58;;;;;;;15.23;1.73;;;4.90;99.90;;;;;;4920942;29;20036;-94
2021/01/17 09:28:24;;;;;;;34.72;3.25;;;5.00;99.90;;;;;;4939435;29;20024;-93
2021/01/17 09:30:51;;;;;;;20.05;2.30;;;5.00;99.90;;;;;;4923530;29;20069;-94
2021/01/17 09:33:18;;;;;;;13.63;2.08;;;5.00;99.90;;;;;;4916024;29;20035;-93
2021/01/17 09:35:45;;;;;;;12.00;1.38;;;5.00;99.90;;;;;;4919115;29;20474;-96
2021/01/17 09:38:16;;;;;;;10.75;1.67;;;5.00;99.90;;;;;;4915507;29;20055;-94
2021/01/17 09:40:42;;;;;;;;;;;5.00;99.90;;;;;;4908334;29;20051;-96
2021/01/17 09:43:08;;;;;;;13.18;1.48;;;5.00;99.90;;;;;;4888767;29;19923;-94
2021/01/17 09:45:34;;;;;;;12.32;2.33;;;5.10;99.90;;;;;;4909822;29;20028;-94
2021/01/17 09:48:00;;;;;;;5.10;1.42;;;5.10;99.90;;;;;;4903458;29;20372;-94
2021/01/17 09:50:33;;;;;;;13.48;2.47;;;5.20;99.90;;;;;;4891559;29;20036;-96
2021/01/17 09:53:07;;;;;;;14.85;2.95;;;5.30;99.90;;;;;;4901672;29;20615;-94
2021/01/17 09:55:43;;;;;;;15.00;2.45;;;5.50;99.90;;;;;;4890024;29;20034;-93
2021/01/17 09:58:11;;;;;;;10.40;2.00;;;5.60;99.90;;;;;;4906028;29;20081;-95
2021/01/17 10:00:38;;;;;;;9.07;1.40;;;5.60;99.90;;;;;;4889725;29;20475;-95
2021/01/17 10:03:09;;;;;;;10.95;1.95;;;5.60;99.90;;;;;;4908945;29;20028;-95
2021/01/17 10:05:36;;;;;;;15.55;2.97;;;5.60;99.90;;;;;;4895897;29;20016;-95
2021/01/17 10:08:13;;;;;;;19.35;3.58;;;5.60;99.90;;;;;;4914526;29;20393;-94
2021/01/17 10:10:40;;;;;;;11.88;2.03;;;5.70;99.90;;;;;;4918549;29;20028;-94
2021/01/17 10:13:09;;;;;;;10.23;2.15;;;5.80;99.90;;;;;;4915993;29;20116;-96
2021/01/17 10:15:35;;;;;;;12.50;1.75;;;5.90;99.90;;;;;;4907703;29;20032;-94
2021/01/17 10:18:01;;;;;;;8.77;2.05;;;5.90;99.90;;;;;;4916068;29;20040;-95
2021/01/17 10:20:29;;;;;;;14.50;2.88;;;6.00;99.90;;;;;;4920345;29;21449;-95
2021/01/17 10:23:07;;;;;;;4.97;1.33;;;6.00;99.90;;;;;;4899609;29;20032;-96
2021/01/17 10:25:42;;;;;;;17.85;2.20;;;6.10;99.90;;;;;;4918433;29;20032;-95
2021/01/17 10:28:09;;;;;;;14.73;2.10;;;6.10;99.90;;;;;;4919084;29;20032;-94
2021/01/17 10:31:03;;;;;;;9.82;1.90;;;6.20;99.90;;;;;;4905118;29;20068;-94
2021/01/17 10:33:30;;;;;;;13.40;2.63;;;6.30;99.90;;;;;;4920521;29;20028;-94
2021/01/17 10:35:59;;;;;;;18.20;2.38;;;6.30;99.90;;;;;;4921045;29;20028;-93
2021/01/17 10:38:49;;;;;;;12.43;1.77;;;6.30;99.90;;;;;;4927656;29;20039;-95
2021/01/17 10:41:27;;;;;;;10.00;1.65;;;6.30;99.90;;;;;;4921654;29;20036;-94
2021/01/17 10:44:13;;;;;;;11.02;2.42;;;6.20;99.90;;;;;;4917426;29;20035;-93
2021/01/17 10:46:44;;;;;;;11.88;1.85;;;6.10;99.90;;;;;;4914917;29;20021;-93
2021/01/17 10:49:17;;;;;;;13.13;1.85;;;6.00;99.90;;;;;;4922077;29;20031;-96
2021/01/17 10:51:46;;;;;;;17.73;1.88;;;6.00;99.90;;;;;;4919373;29;20055;-95
2021/01/17 10:54:21;;;;;;;14.57;2.63;;;6.00;99.90;;;;;;4916783;29;20525;-96
2021/01/17 10:56:48;;;;;;;14.95;1.90;;;6.00;99.90;;;;;;4899319;29;20148;-94
2021/01/17 10:59:17;;;;;;;16.38;2.08;;;5.90;99.90;;;;;;4910598;29;20041;-95
2021/01/17 11:01:47;;;;;;;22.38;1.55;;;5.90;99.90;;;;;;4905177;29;20108;-95
2021/01/17 11:04:16;;;;;;;16.63;1.75;;;6.00;99.90;;;;;;4909110;29;20036;-94
2021/01/17 11:06:49;;;;;;;12.70;2.63;;;6.00;99.90;;;;;;4910547;29;20064;-93
2021/01/17 11:09:16;;;;;;;11.70;1.63;;;6.10;99.90;;;;;;4896932;29;20111;-95
2021/01/17 11:11:50;;;;;;;18.30;2.25;;;6.20;99.90;;;;;;4919091;29;20118;-96
2021/01/17 11:14:30;;;;;;;27.17;3.67;;;6.30;99.90;;;;;;4912440;29;20288;-95
2021/01/17 11:16:56;;;;;;;9.77;1.50;;;6.30;99.90;;;;;;4919842;29;20044;-95
2021/01/17 11:19:39;;;;;;;16.35;1.65;;;6.40;99.90;;;;;;4919103;29;20040;-95
2021/01/17 11:22:06;;;;;;;6.93;1.17;;;6.40;99.90;;;;;;4932135;29;20545;-96
2021/01/17 11:24:37;;;;;;;11.25;1.48;;;6.40;99.90;;;;;;4927867;29;20457;-94
2021/01/17 11:27:14;;;;;;;14.73;1.90;;;6.30;99.90;;;;;;4903655;29;20040;-94
2021/01/17 11:29:44;;;;;;;9.85;2.15;;;6.20;99.90;;;;;;4909245;29;20038;-94
2021/01/17 11:32:11;;;;;;;14.00;1.70;;;6.20;99.90;;;;;;4925764;29;20051;-94
2021/01/17 11:34:41;;;;;;;9.48;1.48;;;6.20;99.90;;;;;;4925944;29;20074;-95
2021/01/17 11:37:08;;;;;;;24.05;2.78;;;6.20;99.90;;;;;;4927832;29;20036;-95
2021/01/17 11:39:35;;;;;;;15.23;1.67;;;6.20;99.90;;;;;;4928154;29;20483;-96
2021/01/17 11:42:01;;;;;;;9.82;1.73;;;6.20;99.90;;;;;;4911064;29;20119;-95
2021/01/17 11:44:33;;;;;;;15.50;1.63;;;6.20;99.90;;;;;;4929565;29;20052;-93
2021/01/17 11:47:02;;;;;;;17.05;2.05;;;6.20;99.90;;;;;;4925352;29;20030;-96
2021/01/17 11:49:29;;;;;;;8.80;1.60;;;6.20;99.90;;;;;;4925227;29;20105;-94
2021/01/17 11:51:57;;;;;;;12.40;1.48;;;6.20;99.90;;;;;;4921880;29;20025;-93
2021/01/17 11:54:32;;;;;;;12.38;1.52;;;6.30;99.90;;;;;;4908652;29;20032;-94
2021/01/17 11:57:10;;;;;;;13.23;2.10;;;6.30;99.90;;;;;;4915698;29;20028;-95
2021/01/17 11:59:37;;;;;;;20.08;1.92;;;6.40;99.90;;;;;;4916990;29;20036;-95
2021/01/17 12:02:25;;;;;;;8.30;1.58;;;6.40;99.90;;;;;;4916393;29;20494;-95
2021/01/17 12:04:59;;;;;;;9.68;2.78;;;6.50;99.90;;;;;;4917691;29;20032;-94
2021/01/17 12:07:25;;;;;;;12.23;1.75;;;6.50;99.90;;;;;;4918329;29;20035;-95
2021/01/17 12:10:05;;;;;;;13.50;1.67;;;6.50;99.90;;;;;;4926114;29;20031;-93
2021/01/17 12:12:39;;;;;;;12.98;2.20;;;6.50;99.90;;;;;;4917489;29;20071;-93
2021/01/17 12:15:09;;;;;;;10.55;1.63;;;6.50;99.90;;;;;;4930136;29;20028;-95
2021/01/17 12:17:37;;;;;;;12.30;3.42;;;6.50;99.90;;;;;;4951703;29;20040;-95
2021/01/17 12:20:06;;;;;;;12.70;2.05;;;6.50;99.90;;;;;;4955341;29;20028;-95
2021/01/17 12:22:31;;;;;;;22.13;2.10;;;6.50;99.90;;;;;;4955106;29;20036;-96
2021/01/17 12:24:57;;;;;;;14.05;2.05;;;6.50;99.90;;;;;;4942912;29;20044;-95
2021/01/17 12:56:48;;;;;;;9.38;1.40;;;6.40;99.90;;;;;;5792558;23;20117;-96
2021/01/17 12:59:14;;;;;;;10.13;1.98;;;6.40;99.90;;;;;;4949015;29;20050;-95
2021/01/17 13:01:39;;;;;;;17.23;1.90;;;6.30;99.90;;;;;;4953141;29;20122;-95
2021/01/17 13:04:06;;;;;;;20.75;2.58;;;6.30;99.90;;;;;;4948790;29;20016;-95
2021/01/17 13:06:32;;;;;;;16.45;2.03;;;6.30;99.90;;;;;;4968351;29;20609;-94
2021/01/17 13:09:00;;;;;;;14.52;2.58;;;6.30;99.90;;;;;;4956521;28;20032;-95
2021/01/17 13:11:27;;;;;;;16.95;2.55;;;6.30;99.90;;;;;;4958535;29;20031;-96
2021/01/17 13:13:53;;;;;;;11.13;2.33;;;6.30;99.90;;;;;;4955120;29;20036;-96
2021/01/17 13:16:24;;;;;;;18.38;2.20;;;6.30;99.90;;;;;;4958096;28;20074;-96
2021/01/17 13:18:51;;;;;;;25.25;2.83;;;6.30;99.90;;;;;;4957927;29;20044;-95
2021/01/17 13:49:10;;;;;;;12.68;2.40;;;6.30;99.90;;;;;;5603133;23;20111;-94
2021/01/17 13:51:39;;;;;;;17.45;3.08;;;6.30;99.90;;;;;;4938586;29;20040;-94
2021/01/17 13:54:05;;;;;;;7.05;1.80;;;6.30;99.90;;;;;;4937900;29;20062;-94
2021/01/17 13:56:35;;;;;;;16.77;2.58;;;6.30;99.90;;;;;;4940493;29;20040;-94
2021/01/17 13:59:02;;;;;;;16.52;2.35;;;6.30;99.90;;;;;;4957637;28;20034;-95
2021/01/17 14:01:27;;;;;;;23.80;2.78;;;6.30;99.90;;;;;;4933304;29;20040;-95
2021/01/17 14:03:53;;;;;;;19.20;2.30;;;6.30;99.90;;;;;;4943288;29;20031;-94
2021/01/17 14:06:19;;;;;;;23.08;2.63;;;6.30;99.90;;;;;;4940585;29;20212;-95
2021/01/17 14:08:44;;;;;;;21.13;3.90;;;6.20;99.90;;;;;;4942195;29;20023;-94
2021/01/17 14:11:10;;;;;;;16.50;2.70;;;6.30;99.90;;;;;;4941443;29;20038;-94
2021/01/17 14:13:36;;;;;;;17.08;2.80;;;6.30;99.90;;;;;;4942709;29;20508;-95
2021/01/17 14:16:02;;;;;;;14.18;4.22;;;6.30;99.90;;;;;;4939954;29;20315;-94
2021/01/17 14:18:28;;;;;;;24.60;4.03;;;6.30;99.90;;;;;;4942337;29;20038;-93
2021/01/17 14:20:53;;;;;;;22.30;2.97;;;6.30;99.90;;;;;;4945387;29;20028;-95
2021/01/17 14:23:21;;;;;;;15.23;3.08;;;6.30;99.90;;;;;;4941509;29;20040;-95
2021/01/17 14:25:46;;;;;;;18.48;4.68;;;6.30;99.90;;;;;;4940055;29;20032;-93
2021/01/17 14:28:12;;;;;;;14.80;2.33;;;6.20;99.90;;;;;;4939662;29;20078;-95